sensor_id;sensor_type;location;lat;lon;timestamp;P1;durP1;ratioP1;P2;durP2;ratioP2
69463;SDS011;56665;41.106;16.688;2024-01-11T00:02:34;17.20;;;8.93;;
69463;SDS011;56665;41.106;16.688;2024-01-11T00:05:38;17.45;;;9.20;;
69463;SDS011;56665;41.106;16.688;2024-01-11T00:08:42;16.80;;;9.75;;
69463;SDS011;56665;41.106;16.688;2024-01-11T00:11:46;18.90;;;10.00;;
69463;SDS011;56665;41.106;16.688;2024-01-11T00:14:50;16.60;;;9.65;;
69463;SDS011;56665;41.106;16.688;2024-01-11T00:17:54;14.93;;;8.68;;
69463;SDS011;56665;41.106;16.688;2024-01-11T00:20:58;15.60;;;8.52;;
69463;SDS011;56665;41.106;16.688;2024-01-11T00:24:02;13.82;;;7.60;;
69463;SDS011;56665;41.106;16.688;2024-01-11T00:27:05;12.80;;;7.73;;
69463;SDS011;56665;41.106;16.688;2024-01-11T00:30:09;15.32;;;8.35;;
69463;SDS011;56665;41.106;16.688;2024-01-11T00:33:13;14.55;;;7.78;;
69463;SDS011;56665;41.106;16.688;2024-01-11T00:36:17;16.10;;;7.57;;
69463;SDS011;56665;41.106;16.688;2024-01-11T00:39:23;17.00;;;8.30;;
69463;SDS011;56665;41.106;16.688;2024-01-11T00:42:27;14.07;;;7.67;;
69463;SDS011;56665;41.106;16.688;2024-01-11T00:45:32;13.07;;;6.70;;
69463;SDS011;56665;41.106;16.688;2024-01-11T00:48:36;13.07;;;7.38;;
69463;SDS011;56665;41.106;16.688;2024-01-11T00:51:39;16.02;;;8.13;;
69463;SDS011;56665;41.106;16.688;2024-01-11T00:54:43;15.57;;;8.40;;
69463;SDS011;56665;41.106;16.688;2024-01-11T00:57:47;16.10;;;8.47;;
69463;SDS011;56665;41.106;16.688;2024-01-11T01:00:50;17.77;;;8.30;;
69463;SDS011;56665;41.106;16.688;2024-01-11T01:03:55;17.30;;;8.00;;
69463;SDS011;56665;41.106;16.688;2024-01-11T01:06:59;16.23;;;8.20;;
69463;SDS011;56665;41.106;16.688;2024-01-11T01:10:03;17.02;;;8.68;;
69463;SDS011;56665;41.106;16.688;2024-01-11T01:13:07;17.83;;;8.03;;
69463;SDS011;56665;41.106;16.688;2024-01-11T01:16:11;18.70;;;8.88;;
69463;SDS011;56665;41.106;16.688;2024-01-11T01:19:14;17.88;;;9.02;;
69463;SDS011;56665;41.106;16.688;2024-01-11T01:22:18;16.25;;;8.02;;
69463;SDS011;56665;41.106;16.688;2024-01-11T01:25:22;15.32;;;8.60;;
69463;SDS011;56665;41.106;16.688;2024-01-11T01:28:26;16.57;;;8.70;;
69463;SDS011;56665;41.106;16.688;2024-01-11T01:31:29;17.17;;;9.32;;
69463;SDS011;56665;41.106;16.688;2024-01-11T01:34:33;17.90;;;9.20;;
69463;SDS011;56665;41.106;16.688;2024-01-11T01:37:37;17.13;;;9.20;;
69463;SDS011;56665;41.106;16.688;2024-01-11T01:40:41;17.27;;;9.07;;
69463;SDS011;56665;41.106;16.688;2024-01-11T01:43:45;16.80;;;8.67;;
69463;SDS011;56665;41.106;16.688;2024-01-11T01:46:48;14.88;;;8.85;;
69463;SDS011;56665;41.106;16.688;2024-01-11T01:49:53;16.02;;;8.60;;
69463;SDS011;56665;41.106;16.688;2024-01-11T01:52:57;17.30;;;8.38;;
69463;SDS011;56665;41.106;16.688;2024-01-11T01:56:01;16.83;;;8.50;;
69463;SDS011;56665;41.106;16.688;2024-01-11T01:59:05;15.73;;;8.57;;
69463;SDS011;56665;41.106;16.688;2024-01-11T02:02:09;16.15;;;7.97;;
69463;SDS011;56665;41.106;16.688;2024-01-11T02:05:13;14.68;;;8.20;;
69463;SDS011;56665;41.106;16.688;2024-01-11T02:08:18;16.52;;;7.60;;
69463;SDS011;56665;41.106;16.688;2024-01-11T02:11:25;14.45;;;7.72;;
69463;SDS011;56665;41.106;16.688;2024-01-11T02:14:30;16.00;;;7.83;;
69463;SDS011;56665;41.106;16.688;2024-01-11T02:17:34;15.00;;;7.65;;
69463;SDS011;56665;41.106;16.688;2024-01-11T02:20:37;13.25;;;7.55;;
69463;SDS011;56665;41.106;16.688;2024-01-11T02:27:08;14.13;;;7.75;;
69463;SDS011;56665;41.106;16.688;2024-01-11T02:30:14;16.23;;;8.20;;
69463;SDS011;56665;41.106;16.688;2024-01-11T02:33:18;15.05;;;7.53;;
69463;SDS011;56665;41.106;16.688;2024-01-11T02:36:22;12.50;;;7.40;;
69463;SDS011;56665;41.106;16.688;2024-01-11T02:39:26;17.13;;;7.95;;
69463;SDS011;56665;41.106;16.688;2024-01-11T02:42:29;14.07;;;7.70;;
69463;SDS011;56665;41.106;16.688;2024-01-11T02:45:33;11.13;;;6.60;;
69463;SDS011;56665;41.106;16.688;2024-01-11T02:48:37;13.23;;;7.32;;
69463;SDS011;56665;41.106;16.688;2024-01-11T02:51:41;14.13;;;7.22;;
69463;SDS011;56665;41.106;16.688;2024-01-11T02:54:44;12.43;;;7.00;;
69463;SDS011;56665;41.106;16.688;2024-01-11T02:57:48;13.02;;;6.47;;
69463;SDS011;56665;41.106;16.688;2024-01-11T03:00:52;12.97;;;6.47;;
69463;SDS011;56665;41.106;16.688;2024-01-11T03:03:55;12.25;;;6.63;;
69463;SDS011;56665;41.106;16.688;2024-01-11T03:06:59;13.10;;;6.93;;
69463;SDS011;56665;41.106;16.688;2024-01-11T03:10:03;12.95;;;7.30;;
69463;SDS011;56665;41.106;16.688;2024-01-11T03:13:07;13.73;;;7.50;;
69463;SDS011;56665;41.106;16.688;2024-01-11T03:16:10;14.10;;;7.37;;
69463;SDS011;56665;41.106;16.688;2024-01-11T03:19:14;13.15;;;6.80;;
69463;SDS011;56665;41.106;16.688;2024-01-11T03:22:18;11.52;;;6.70;;
69463;SDS011;56665;41.106;16.688;2024-01-11T03:25:22;14.65;;;8.50;;
69463;SDS011;56665;41.106;16.688;2024-01-11T03:28:25;14.15;;;7.63;;
69463;SDS011;56665;41.106;16.688;2024-01-11T03:31:29;13.63;;;7.77;;
69463;SDS011;56665;41.106;16.688;2024-01-11T03:34:33;13.45;;;7.05;;
69463;SDS011;56665;41.106;16.688;2024-01-11T03:37:37;14.15;;;7.80;;
69463;SDS011;56665;41.106;16.688;2024-01-11T03:40:41;15.07;;;9.73;;
69463;SDS011;56665;41.106;16.688;2024-01-11T03:43:44;19.60;;;11.55;;
69463;SDS011;56665;41.106;16.688;2024-01-11T03:46:48;14.97;;;8.60;;
69463;SDS011;56665;41.106;16.688;2024-01-11T03:49:52;16.23;;;8.25;;
69463;SDS011;56665;41.106;16.688;2024-01-11T03:52:56;15.38;;;8.95;;
69463;SDS011;56665;41.106;16.688;2024-01-11T03:55:59;15.00;;;9.02;;
69463;SDS011;56665;41.106;16.688;2024-01-11T03:59:03;13.57;;;7.53;;
69463;SDS011;56665;41.106;16.688;2024-01-11T04:02:07;12.83;;;7.23;;
69463;SDS011;56665;41.106;16.688;2024-01-11T04:05:11;14.48;;;7.70;;
69463;SDS011;56665;41.106;16.688;2024-01-11T04:08:14;14.88;;;7.70;;
69463;SDS011;56665;41.106;16.688;2024-01-11T04:11:18;12.43;;;6.40;;
69463;SDS011;56665;41.106;16.688;2024-01-11T04:14:22;12.77;;;7.40;;
69463;SDS011;56665;41.106;16.688;2024-01-11T04:17:26;15.93;;;7.57;;
69463;SDS011;56665;41.106;16.688;2024-01-11T04:20:29;11.75;;;6.78;;
69463;SDS011;56665;41.106;16.688;2024-01-11T04:23:33;13.30;;;7.13;;
69463;SDS011;56665;41.106;16.688;2024-01-11T04:26:37;14.65;;;7.07;;
69463;SDS011;56665;41.106;16.688;2024-01-11T04:29:40;14.07;;;7.15;;
69463;SDS011;56665;41.106;16.688;2024-01-11T04:32:44;16.37;;;8.43;;
69463;SDS011;56665;41.106;16.688;2024-01-11T04:35:48;14.57;;;8.15;;
69463;SDS011;56665;41.106;16.688;2024-01-11T04:38:51;14.90;;;7.32;;
69463;SDS011;56665;41.106;16.688;2024-01-11T04:41:55;14.88;;;7.38;;
69463;SDS011;56665;41.106;16.688;2024-01-11T04:44:59;14.35;;;7.50;;
69463;SDS011;56665;41.106;16.688;2024-01-11T04:48:03;14.80;;;7.13;;
69463;SDS011;56665;41.106;16.688;2024-01-11T04:51:07;11.80;;;6.85;;
69463;SDS011;56665;41.106;16.688;2024-01-11T04:54:10;13.55;;;7.75;;
69463;SDS011;56665;41.106;16.688;2024-01-11T04:57:14;14.02;;;7.78;;
69463;SDS011;56665;41.106;16.688;2024-01-11T05:00:18;13.23;;;7.65;;
69463;SDS011;56665;41.106;16.688;2024-01-11T05:03:21;14.90;;;8.17;;
69463;SDS011;56665;41.106;16.688;2024-01-11T05:06:25;12.75;;;7.80;;
69463;SDS011;56665;41.106;16.688;2024-01-11T05:09:29;13.77;;;8.13;;
69463;SDS011;56665;41.106;16.688;2024-01-11T05:12:33;13.10;;;8.05;;
69463;SDS011;56665;41.106;16.688;2024-01-11T05:15:36;15.40;;;8.52;;
69463;SDS011;56665;41.106;16.688;2024-01-11T05:18:40;15.83;;;8.93;;
69463;SDS011;56665;41.106;16.688;2024-01-11T05:21:44;13.77;;;8.75;;
69463;SDS011;56665;41.106;16.688;2024-01-11T05:24:48;14.85;;;8.77;;
69463;SDS011;56665;41.106;16.688;2024-01-11T05:27:52;17.42;;;8.63;;
69463;SDS011;56665;41.106;16.688;2024-01-11T05:30:55;15.52;;;8.30;;
69463;SDS011;56665;41.106;16.688;2024-01-11T05:33:59;16.27;;;8.27;;
69463;SDS011;56665;41.106;16.688;2024-01-11T05:37:03;17.17;;;9.15;;
69463;SDS011;56665;41.106;16.688;2024-01-11T05:40:07;16.08;;;8.70;;
69463;SDS011;56665;41.106;16.688;2024-01-11T05:43:11;14.07;;;8.43;;
69463;SDS011;56665;41.106;16.688;2024-01-11T05:46:15;17.23;;;9.00;;
69463;SDS011;56665;41.106;16.688;2024-01-11T05:49:19;18.43;;;8.93;;
69463;SDS011;56665;41.106;16.688;2024-01-11T05:52:22;16.25;;;8.98;;
69463;SDS011;56665;41.106;16.688;2024-01-11T05:55:26;16.80;;;9.52;;
69463;SDS011;56665;41.106;16.688;2024-01-11T05:58:30;19.90;;;8.93;;
69463;SDS011;56665;41.106;16.688;2024-01-11T06:01:33;16.83;;;9.55;;
69463;SDS011;56665;41.106;16.688;2024-01-11T06:04:44;20.33;;;10.67;;
69463;SDS011;56665;41.106;16.688;2024-01-11T06:07:47;24.92;;;13.20;;
69463;SDS011;56665;41.106;16.688;2024-01-11T06:10:51;45.33;;;22.80;;
69463;SDS011;56665;41.106;16.688;2024-01-11T06:13:55;29.52;;;16.25;;
69463;SDS011;56665;41.106;16.688;2024-01-11T06:16:59;26.70;;;15.38;;
69463;SDS011;56665;41.106;16.688;2024-01-11T06:20:03;27.27;;;15.23;;
69463;SDS011;56665;41.106;16.688;2024-01-11T06:23:08;29.42;;;15.48;;
69463;SDS011;56665;41.106;16.688;2024-01-11T06:26:12;30.15;;;15.60;;
69463;SDS011;56665;41.106;16.688;2024-01-11T06:29:15;35.90;;;18.83;;
69463;SDS011;56665;41.106;16.688;2024-01-11T06:32:19;34.13;;;18.38;;
69463;SDS011;56665;41.106;16.688;2024-01-11T06:35:23;39.63;;;20.83;;
69463;SDS011;56665;41.106;16.688;2024-01-11T06:38:27;51.10;;;24.30;;
69463;SDS011;56665;41.106;16.688;2024-01-11T06:41:30;53.50;;;27.42;;
69463;SDS011;56665;41.106;16.688;2024-01-11T06:44:34;48.67;;;25.58;;
69463;SDS011;56665;41.106;16.688;2024-01-11T06:47:38;37.13;;;19.13;;
69463;SDS011;56665;41.106;16.688;2024-01-11T06:50:41;28.73;;;17.10;;
69463;SDS011;56665;41.106;16.688;2024-01-11T06:53:45;24.02;;;13.20;;
69463;SDS011;56665;41.106;16.688;2024-01-11T06:56:49;26.08;;;14.40;;
69463;SDS011;56665;41.106;16.688;2024-01-11T06:59:53;21.55;;;12.55;;
69463;SDS011;56665;41.106;16.688;2024-01-11T07:02:56;25.98;;;14.40;;
69463;SDS011;56665;41.106;16.688;2024-01-11T07:06:00;26.43;;;14.60;;
69463;SDS011;56665;41.106;16.688;2024-01-11T07:09:04;26.92;;;15.93;;
69463;SDS011;56665;41.106;16.688;2024-01-11T07:12:09;28.90;;;17.13;;
69463;SDS011;56665;41.106;16.688;2024-01-11T07:15:13;32.45;;;18.98;;
69463;SDS011;56665;41.106;16.688;2024-01-11T07:18:18;36.25;;;22.95;;
69463;SDS011;56665;41.106;16.688;2024-01-11T07:21:22;32.50;;;19.30;;
69463;SDS011;56665;41.106;16.688;2024-01-11T07:24:32;35.72;;;21.52;;
69463;SDS011;56665;41.106;16.688;2024-01-11T07:27:40;38.03;;;22.35;;
69463;SDS011;56665;41.106;16.688;2024-01-11T07:30:44;36.65;;;21.88;;
69463;SDS011;56665;41.106;16.688;2024-01-11T07:33:48;38.17;;;22.88;;
69463;SDS011;56665;41.106;16.688;2024-01-11T07:36:52;41.87;;;23.63;;
69463;SDS011;56665;41.106;16.688;2024-01-11T07:39:55;36.08;;;20.70;;
69463;SDS011;56665;41.106;16.688;2024-01-11T07:42:59;35.08;;;20.40;;
69463;SDS011;56665;41.106;16.688;2024-01-11T07:46:03;34.53;;;18.88;;
69463;SDS011;56665;41.106;16.688;2024-01-11T07:49:08;31.95;;;18.70;;
69463;SDS011;56665;41.106;16.688;2024-01-11T07:52:13;33.63;;;18.47;;
69463;SDS011;56665;41.106;16.688;2024-01-11T07:55:17;40.90;;;20.67;;
69463;SDS011;56665;41.106;16.688;2024-01-11T07:58:22;37.72;;;20.10;;
69463;SDS011;56665;41.106;16.688;2024-01-11T08:01:26;36.75;;;20.77;;
69463;SDS011;56665;41.106;16.688;2024-01-11T08:04:30;31.50;;;17.77;;
69463;SDS011;56665;41.106;16.688;2024-01-11T08:07:34;27.80;;;15.70;;
69463;SDS011;56665;41.106;16.688;2024-01-11T08:10:38;31.45;;;15.35;;
69463;SDS011;56665;41.106;16.688;2024-01-11T08:13:42;25.63;;;15.07;;
69463;SDS011;56665;41.106;16.688;2024-01-11T08:16:46;24.13;;;12.88;;
69463;SDS011;56665;41.106;16.688;2024-01-11T08:19:49;19.70;;;11.63;;
69463;SDS011;56665;41.106;16.688;2024-01-11T08:22:53;20.93;;;12.27;;
69463;SDS011;56665;41.106;16.688;2024-01-11T08:25:57;21.45;;;13.02;;
69463;SDS011;56665;41.106;16.688;2024-01-11T08:29:01;27.85;;;14.15;;
69463;SDS011;56665;41.106;16.688;2024-01-11T08:32:05;25.55;;;13.73;;
69463;SDS011;56665;41.106;16.688;2024-01-11T08:35:10;24.08;;;14.55;;
69463;SDS011;56665;41.106;16.688;2024-01-11T08:38:14;23.03;;;13.47;;
69463;SDS011;56665;41.106;16.688;2024-01-11T08:41:18;23.00;;;12.95;;
69463;SDS011;56665;41.106;16.688;2024-01-11T08:44:22;21.95;;;12.80;;
69463;SDS011;56665;41.106;16.688;2024-01-11T08:47:26;24.63;;;13.75;;
69463;SDS011;56665;41.106;16.688;2024-01-11T08:50:29;23.13;;;12.65;;
69463;SDS011;56665;41.106;16.688;2024-01-11T08:53:33;20.33;;;12.20;;
69463;SDS011;56665;41.106;16.688;2024-01-11T08:56:37;19.40;;;12.05;;
69463;SDS011;56665;41.106;16.688;2024-01-11T08:59:42;22.25;;;12.52;;
69463;SDS011;56665;41.106;16.688;2024-01-11T09:02:45;19.58;;;11.73;;
69463;SDS011;56665;41.106;16.688;2024-01-11T09:05:49;19.70;;;10.85;;
69463;SDS011;56665;41.106;16.688;2024-01-11T09:08:53;18.80;;;11.03;;
69463;SDS011;56665;41.106;16.688;2024-01-11T09:11:57;18.75;;;10.57;;
69463;SDS011;56665;41.106;16.688;2024-01-11T09:15:00;20.02;;;11.00;;
69463;SDS011;56665;41.106;16.688;2024-01-11T09:18:04;17.13;;;10.60;;
69463;SDS011;56665;41.106;16.688;2024-01-11T09:21:08;19.95;;;11.88;;
69463;SDS011;56665;41.106;16.688;2024-01-11T09:24:12;20.07;;;11.83;;
69463;SDS011;56665;41.106;16.688;2024-01-11T09:27:15;21.17;;;11.10;;
69463;SDS011;56665;41.106;16.688;2024-01-11T09:30:19;22.45;;;11.85;;
69463;SDS011;56665;41.106;16.688;2024-01-11T09:33:23;22.17;;;11.80;;
69463;SDS011;56665;41.106;16.688;2024-01-11T09:36:27;20.63;;;10.25;;
69463;SDS011;56665;41.106;16.688;2024-01-11T09:39:30;18.43;;;10.33;;
69463;SDS011;56665;41.106;16.688;2024-01-11T09:42:34;15.27;;;9.18;;
69463;SDS011;56665;41.106;16.688;2024-01-11T09:45:38;19.23;;;9.27;;
69463;SDS011;56665;41.106;16.688;2024-01-11T09:48:42;20.67;;;10.70;;
69463;SDS011;56665;41.106;16.688;2024-01-11T09:51:47;19.90;;;10.43;;
69463;SDS011;56665;41.106;16.688;2024-01-11T09:54:52;18.03;;;9.70;;
69463;SDS011;56665;41.106;16.688;2024-01-11T09:57:56;14.48;;;8.30;;
69463;SDS011;56665;41.106;16.688;2024-01-11T10:01:03;15.98;;;7.95;;
69463;SDS011;56665;41.106;16.688;2024-01-11T10:04:12;13.63;;;7.68;;
69463;SDS011;56665;41.106;16.688;2024-01-11T10:07:16;15.13;;;8.75;;
69463;SDS011;56665;41.106;16.688;2024-01-11T10:10:23;15.63;;;9.40;;
69463;SDS011;56665;41.106;16.688;2024-01-11T10:13:27;16.52;;;9.80;;
69463;SDS011;56665;41.106;16.688;2024-01-11T10:16:32;17.70;;;10.52;;
69463;SDS011;56665;41.106;16.688;2024-01-11T10:19:35;17.88;;;10.65;;
69463;SDS011;56665;41.106;16.688;2024-01-11T10:22:39;20.73;;;11.10;;
69463;SDS011;56665;41.106;16.688;2024-01-11T10:25:44;20.13;;;11.77;;
69463;SDS011;56665;41.106;16.688;2024-01-11T10:28:48;19.60;;;11.02;;
69463;SDS011;56665;41.106;16.688;2024-01-11T10:31:52;21.83;;;11.35;;
69463;SDS011;56665;41.106;16.688;2024-01-11T10:34:55;18.55;;;10.90;;
69463;SDS011;56665;41.106;16.688;2024-01-11T10:37:59;21.58;;;12.85;;
69463;SDS011;56665;41.106;16.688;2024-01-11T10:41:08;20.87;;;11.63;;
69463;SDS011;56665;41.106;16.688;2024-01-11T10:44:18;17.48;;;10.82;;
69463;SDS011;56665;41.106;16.688;2024-01-11T10:47:24;20.50;;;12.32;;
69463;SDS011;56665;41.106;16.688;2024-01-11T10:50:34;22.52;;;12.85;;
69463;SDS011;56665;41.106;16.688;2024-01-11T10:53:43;23.73;;;12.82;;
69463;SDS011;56665;41.106;16.688;2024-01-11T10:56:48;21.77;;;12.37;;
69463;SDS011;56665;41.106;16.688;2024-01-11T10:59:53;19.67;;;11.60;;
69463;SDS011;56665;41.106;16.688;2024-01-11T11:02:59;20.67;;;11.13;;
69463;SDS011;56665;41.106;16.688;2024-01-11T11:06:06;19.08;;;10.02;;
69463;SDS011;56665;41.106;16.688;2024-01-11T11:09:10;19.23;;;11.05;;
69463;SDS011;56665;41.106;16.688;2024-01-11T11:12:17;17.40;;;10.33;;
69463;SDS011;56665;41.106;16.688;2024-01-11T11:15:23;21.35;;;11.75;;
69463;SDS011;56665;41.106;16.688;2024-01-11T11:18:27;19.38;;;10.98;;
69463;SDS011;56665;41.106;16.688;2024-01-11T11:21:30;18.30;;;10.93;;
69463;SDS011;56665;41.106;16.688;2024-01-11T11:24:34;20.23;;;10.60;;
69463;SDS011;56665;41.106;16.688;2024-01-11T11:27:39;17.67;;;10.30;;
69463;SDS011;56665;41.106;16.688;2024-01-11T11:30:43;15.70;;;9.20;;
69463;SDS011;56665;41.106;16.688;2024-01-11T11:33:48;19.42;;;10.82;;
69463;SDS011;56665;41.106;16.688;2024-01-11T11:36:53;24.90;;;12.32;;
69463;SDS011;56665;41.106;16.688;2024-01-11T11:39:58;24.00;;;12.93;;
69463;SDS011;56665;41.106;16.688;2024-01-11T11:43:04;25.57;;;13.97;;
69463;SDS011;56665;41.106;16.688;2024-01-11T11:46:11;21.92;;;12.30;;
69463;SDS011;56665;41.106;16.688;2024-01-11T11:49:15;21.75;;;12.20;;
69463;SDS011;56665;41.106;16.688;2024-01-11T11:52:19;24.70;;;13.20;;
69463;SDS011;56665;41.106;16.688;2024-01-11T11:55:23;24.83;;;12.05;;
69463;SDS011;56665;41.106;16.688;2024-01-11T11:58:29;20.93;;;11.83;;
69463;SDS011;56665;41.106;16.688;2024-01-11T12:01:33;25.58;;;13.57;;
69463;SDS011;56665;41.106;16.688;2024-01-11T12:04:39;21.38;;;12.07;;
69463;SDS011;56665;41.106;16.688;2024-01-11T12:07:42;22.30;;;13.70;;
69463;SDS011;56665;41.106;16.688;2024-01-11T12:10:46;21.58;;;13.07;;
69463;SDS011;56665;41.106;16.688;2024-01-11T12:13:50;18.50;;;10.90;;
69463;SDS011;56665;41.106;16.688;2024-01-11T12:16:56;14.32;;;8.02;;
69463;SDS011;56665;41.106;16.688;2024-01-11T12:20:02;14.32;;;8.25;;
69463;SDS011;56665;41.106;16.688;2024-01-11T12:23:06;12.73;;;7.38;;
69463;SDS011;56665;41.106;16.688;2024-01-11T12:26:10;10.43;;;6.38;;
69463;SDS011;56665;41.106;16.688;2024-01-11T12:29:17;11.13;;;6.13;;
69463;SDS011;56665;41.106;16.688;2024-01-11T12:32:22;9.68;;;5.57;;
69463;SDS011;56665;41.106;16.688;2024-01-11T12:35:26;12.63;;;5.95;;
69463;SDS011;56665;41.106;16.688;2024-01-11T12:38:31;8.20;;;5.13;;
69463;SDS011;56665;41.106;16.688;2024-01-11T12:41:36;9.50;;;5.35;;
69463;SDS011;56665;41.106;16.688;2024-01-11T12:44:40;8.13;;;4.77;;
69463;SDS011;56665;41.106;16.688;2024-01-11T12:47:45;7.00;;;4.72;;
69463;SDS011;56665;41.106;16.688;2024-01-11T12:50:49;6.28;;;3.80;;
69463;SDS011;56665;41.106;16.688;2024-01-11T12:53:53;8.30;;;4.05;;
69463;SDS011;56665;41.106;16.688;2024-01-11T12:56:59;8.38;;;4.78;;
69463;SDS011;56665;41.106;16.688;2024-01-11T13:00:15;7.87;;;4.00;;
69463;SDS011;56665;41.106;16.688;2024-01-11T13:03:19;6.85;;;4.50;;
69463;SDS011;56665;41.106;16.688;2024-01-11T13:06:24;8.88;;;4.55;;
69463;SDS011;56665;41.106;16.688;2024-01-11T13:09:28;9.32;;;4.85;;
69463;SDS011;56665;41.106;16.688;2024-01-11T13:12:32;11.73;;;5.97;;
69463;SDS011;56665;41.106;16.688;2024-01-11T13:15:36;9.73;;;5.20;;
69463;SDS011;56665;41.106;16.688;2024-01-11T13:18:40;8.20;;;4.60;;
69463;SDS011;56665;41.106;16.688;2024-01-11T13:21:44;8.43;;;4.70;;
69463;SDS011;56665;41.106;16.688;2024-01-11T13:24:48;8.52;;;5.28;;
69463;SDS011;56665;41.106;16.688;2024-01-11T13:27:52;7.97;;;4.70;;
69463;SDS011;56665;41.106;16.688;2024-01-11T13:30:56;8.50;;;4.60;;
69463;SDS011;56665;41.106;16.688;2024-01-11T13:34:00;7.25;;;4.28;;
69463;SDS011;56665;41.106;16.688;2024-01-11T13:37:04;8.57;;;5.30;;
69463;SDS011;56665;41.106;16.688;2024-01-11T13:40:09;14.85;;;6.85;;
69463;SDS011;56665;41.106;16.688;2024-01-11T13:43:13;12.65;;;7.20;;
69463;SDS011;56665;41.106;16.688;2024-01-11T13:46:17;11.17;;;6.20;;
69463;SDS011;56665;41.106;16.688;2024-01-11T13:49:22;10.98;;;5.75;;
69463;SDS011;56665;41.106;16.688;2024-01-11T13:52:28;11.40;;;6.68;;
69463;SDS011;56665;41.106;16.688;2024-01-11T13:55:32;13.25;;;7.18;;
69463;SDS011;56665;41.106;16.688;2024-01-11T13:58:41;14.10;;;7.70;;
69463;SDS011;56665;41.106;16.688;2024-01-11T14:01:45;13.63;;;7.63;;
69463;SDS011;56665;41.106;16.688;2024-01-11T14:04:48;13.75;;;8.10;;
69463;SDS011;56665;41.106;16.688;2024-01-11T14:07:52;15.95;;;9.38;;
69463;SDS011;56665;41.106;16.688;2024-01-11T14:11:02;17.17;;;10.20;;
69463;SDS011;56665;41.106;16.688;2024-01-11T14:14:07;17.60;;;9.90;;
69463;SDS011;56665;41.106;16.688;2024-01-11T14:17:10;23.63;;;12.33;;
69463;SDS011;56665;41.106;16.688;2024-01-11T14:20:14;19.98;;;11.45;;
69463;SDS011;56665;41.106;16.688;2024-01-11T14:23:18;27.02;;;15.23;;
69463;SDS011;56665;41.106;16.688;2024-01-11T14:26:22;18.88;;;11.00;;
69463;SDS011;56665;41.106;16.688;2024-01-11T14:29:26;18.70;;;10.30;;
69463;SDS011;56665;41.106;16.688;2024-01-11T14:32:30;19.63;;;11.07;;
69463;SDS011;56665;41.106;16.688;2024-01-11T14:35:33;22.50;;;12.82;;
69463;SDS011;56665;41.106;16.688;2024-01-11T14:38:37;18.13;;;10.82;;
69463;SDS011;56665;41.106;16.688;2024-01-11T14:41:41;20.98;;;10.27;;
69463;SDS011;56665;41.106;16.688;2024-01-11T14:44:44;19.55;;;10.80;;
69463;SDS011;56665;41.106;16.688;2024-01-11T14:47:48;18.27;;;10.27;;
69463;SDS011;56665;41.106;16.688;2024-01-11T14:50:52;18.42;;;10.60;;
69463;SDS011;56665;41.106;16.688;2024-01-11T14:53:56;18.10;;;9.80;;
69463;SDS011;56665;41.106;16.688;2024-01-11T14:57:00;18.98;;;10.10;;
69463;SDS011;56665;41.106;16.688;2024-01-11T15:00:04;18.70;;;10.18;;
69463;SDS011;56665;41.106;16.688;2024-01-11T15:03:10;18.93;;;10.50;;
69463;SDS011;56665;41.106;16.688;2024-01-11T15:06:15;19.50;;;9.88;;
69463;SDS011;56665;41.106;16.688;2024-01-11T15:09:18;20.05;;;10.35;;
69463;SDS011;56665;41.106;16.688;2024-01-11T15:12:23;17.42;;;10.38;;
69463;SDS011;56665;41.106;16.688;2024-01-11T15:15:26;16.95;;;9.85;;
69463;SDS011;56665;41.106;16.688;2024-01-11T15:18:30;16.90;;;10.13;;
69463;SDS011;56665;41.106;16.688;2024-01-11T15:21:34;21.63;;;11.43;;
69463;SDS011;56665;41.106;16.688;2024-01-11T15:24:39;18.55;;;11.25;;
69463;SDS011;56665;41.106;16.688;2024-01-11T15:27:44;19.70;;;10.77;;
69463;SDS011;56665;41.106;16.688;2024-01-11T15:30:48;19.42;;;11.00;;
69463;SDS011;56665;41.106;16.688;2024-01-11T15:33:51;20.07;;;11.60;;
69463;SDS011;56665;41.106;16.688;2024-01-11T15:36:55;21.17;;;11.40;;
69463;SDS011;56665;41.106;16.688;2024-01-11T15:39:59;21.35;;;11.85;;
69463;SDS011;56665;41.106;16.688;2024-01-11T15:43:03;20.67;;;11.60;;
69463;SDS011;56665;41.106;16.688;2024-01-11T15:46:09;22.17;;;11.35;;
69463;SDS011;56665;41.106;16.688;2024-01-11T15:49:14;19.20;;;11.43;;
69463;SDS011;56665;41.106;16.688;2024-01-11T15:52:17;26.75;;;15.93;;
69463;SDS011;56665;41.106;16.688;2024-01-11T15:55:21;29.50;;;16.92;;
69463;SDS011;56665;41.106;16.688;2024-01-11T15:58:25;28.88;;;16.52;;
69463;SDS011;56665;41.106;16.688;2024-01-11T16:01:29;30.42;;;17.08;;
69463;SDS011;56665;41.106;16.688;2024-01-11T16:04:33;27.87;;;16.20;;
69463;SDS011;56665;41.106;16.688;2024-01-11T16:07:37;27.27;;;16.83;;
69463;SDS011;56665;41.106;16.688;2024-01-11T16:10:41;29.55;;;16.98;;
69463;SDS011;56665;41.106;16.688;2024-01-11T16:13:45;28.60;;;16.30;;
69463;SDS011;56665;41.106;16.688;2024-01-11T16:16:51;31.38;;;18.40;;
69463;SDS011;56665;41.106;16.688;2024-01-11T16:19:55;27.20;;;16.13;;
69463;SDS011;56665;41.106;16.688;2024-01-11T16:22:58;27.70;;;15.98;;
69463;SDS011;56665;41.106;16.688;2024-01-11T16:26:05;27.63;;;17.13;;
69463;SDS011;56665;41.106;16.688;2024-01-11T16:29:09;30.13;;;16.00;;
69463;SDS011;56665;41.106;16.688;2024-01-11T16:32:13;24.95;;;15.52;;
69463;SDS011;56665;41.106;16.688;2024-01-11T16:35:18;23.67;;;14.33;;
69463;SDS011;56665;41.106;16.688;2024-01-11T16:38:22;27.85;;;15.77;;
69463;SDS011;56665;41.106;16.688;2024-01-11T16:41:26;27.17;;;14.90;;
69463;SDS011;56665;41.106;16.688;2024-01-11T16:44:30;26.15;;;14.98;;
69463;SDS011;56665;41.106;16.688;2024-01-11T16:47:33;29.52;;;14.85;;
69463;SDS011;56665;41.106;16.688;2024-01-11T16:50:39;29.47;;;15.80;;
69463;SDS011;56665;41.106;16.688;2024-01-11T16:53:43;35.67;;;18.15;;
69463;SDS011;56665;41.106;16.688;2024-01-11T16:56:47;36.58;;;18.75;;
69463;SDS011;56665;41.106;16.688;2024-01-11T16:59:51;34.53;;;19.95;;
69463;SDS011;56665;41.106;16.688;2024-01-11T17:02:55;38.83;;;20.90;;
69463;SDS011;56665;41.106;16.688;2024-01-11T17:06:00;38.67;;;21.30;;
69463;SDS011;56665;41.106;16.688;2024-01-11T17:09:04;35.83;;;19.83;;
69463;SDS011;56665;41.106;16.688;2024-01-11T17:12:09;34.10;;;18.05;;
69463;SDS011;56665;41.106;16.688;2024-01-11T17:15:13;37.60;;;17.38;;
69463;SDS011;56665;41.106;16.688;2024-01-11T17:18:17;32.90;;;16.83;;
69463;SDS011;56665;41.106;16.688;2024-01-11T17:21:21;33.37;;;17.97;;
69463;SDS011;56665;41.106;16.688;2024-01-11T17:24:25;35.05;;;18.73;;
69463;SDS011;56665;41.106;16.688;2024-01-11T17:27:29;31.77;;;18.75;;
69463;SDS011;56665;41.106;16.688;2024-01-11T17:30:33;36.88;;;19.58;;
69463;SDS011;56665;41.106;16.688;2024-01-11T17:33:37;36.38;;;19.52;;
69463;SDS011;56665;41.106;16.688;2024-01-11T17:36:41;28.83;;;17.10;;
69463;SDS011;56665;41.106;16.688;2024-01-11T17:39:45;33.60;;;17.90;;
69463;SDS011;56665;41.106;16.688;2024-01-11T17:42:48;29.58;;;17.65;;
69463;SDS011;56665;41.106;16.688;2024-01-11T17:45:52;33.65;;;18.50;;
69463;SDS011;56665;41.106;16.688;2024-01-11T17:48:56;38.00;;;19.00;;
69463;SDS011;56665;41.106;16.688;2024-01-11T17:52:00;35.10;;;18.33;;
69463;SDS011;56665;41.106;16.688;2024-01-11T17:55:04;43.22;;;21.40;;